Startpagina
METAR-TAF:

METAR-TAF

Vliegvelden :

Alice Springs, Australië

breedte: 23-48S, lengte: 133-53E, hoogte: 545 m

Actueel weer

Dit bericht is 30 minuten geleden gemaakt, om 15:00 UTC
Wind 11 kt uit het oostzuidoosten
Temperatuur 28°C
Vochtigheid 40%
Druk 1016 hPa
Zicht 10 km of meer

METAR: YBAS 141500Z AUTO 11011KT 9999 // NCD 28/13 Q1016 RF00.0/000.0 PRESENT WEATHER SENSOR US

Tijdstip: 01:00 (15:30 UTC)

Verwachting

Dit bericht is 4 uur en het 19 minuten geleden gemaakt, om 11:11 UTC
Verwachting geldig van 14 om 12 UTC tot 15 om 12 UTC
Wind 13 kt uit het oostzuidoosten
Zicht 10 km of meer
geen wolken onder 1500 m en geen cumulonimbus
Kans 30% :
Tijdelijke
van 15 om 04 UTC tot 15 om 12 UTC
Wind 30 kt uit variabele richting met uitschieters tot 40 kt
Zicht: 3000 m
Verspreide wolken op 3000 ft
Verspreide wolken op 7000 ft, Cumulonimbus.
onweer, regen

TAF: YBAS 141111Z 1412/1512 11013KT CAVOK PROB30 TEMPO 1504/1512 VRB30G40KT 3000 TSRA SCT030 SCT070CB

Waarnemingen en weersverwachtingen van meer dan 4000 vliegvelden (METAR en TAF).

De beschikbare stations zijn de gele en rode punten op de kaart.

Ga met uw muis naar het station om de naam te zien.

Klik dan om waarnemingen en weersverwachtingen te zien.

kaart wijzigen: klik op de groene knoppen met een zwart kruis om in te zoomen, op de groene knop met een streepje om uit te zoomen of op de groene pijlen voor aangrenzende kaarten.


METAR-TAF: